sensor_id;sensor_type;location;lat;lon;timestamp;pressure;altitude;pressure_sealevel;temperature;humidity
32875;BME280;40468;42.128;24.750;2023-01-29T00:01:23;99876.22;;;3.58;63.67
32875;BME280;40468;42.128;24.750;2023-01-29T00:02:55;99876.22;;;3.59;63.64
32875;BME280;40468;42.128;24.750;2023-01-29T00:04:29;99875.38;;;3.57;63.60
32875;BME280;40468;42.128;24.750;2023-01-29T00:06:03;99875.44;;;3.54;63.99
32875;BME280;40468;42.128;24.750;2023-01-29T00:07:35;99870.34;;;3.50;63.74
32875;BME280;40468;42.128;24.750;2023-01-29T00:09:07;99873.75;;;3.52;63.72
32875;BME280;40468;42.128;24.750;2023-01-29T00:10:39;99884.09;;;3.50;63.68
32875;BME280;40468;42.128;24.750;2023-01-29T00:12:11;99878.03;;;3.53;63.73
32875;BME280;40468;42.128;24.750;2023-01-29T00:13:43;99878.84;;;3.55;63.66
32875;BME280;40468;42.128;24.750;2023-01-29T00:15:16;99878.78;;;3.58;63.63
32875;BME280;40468;42.128;24.750;2023-01-29T00:16:48;99890.81;;;3.57;63.60
32875;BME280;40468;42.128;24.750;2023-01-29T00:18:20;99889.09;;;3.58;63.51
32875;BME280;40468;42.128;24.750;2023-01-29T00:19:53;99892.59;;;3.55;63.58
32875;BME280;40468;42.128;24.750;2023-01-29T00:21:25;99887.44;;;3.55;63.67
32875;BME280;40468;42.128;24.750;2023-01-29T00:22:56;99893.44;;;3.56;63.61
32875;BME280;40468;42.128;24.750;2023-01-29T00:24:27;99891.66;;;3.58;63.64
32875;BME280;40468;42.128;24.750;2023-01-29T00:25:59;99892.56;;;3.57;63.60
32875;BME280;40468;42.128;24.750;2023-01-29T00:27:31;99891.72;;;3.56;63.80
32875;BME280;40468;42.128;24.750;2023-01-29T00:29:03;99898.59;;;3.54;63.82
32875;BME280;40468;42.128;24.750;2023-01-29T00:30:35;99896.91;;;3.52;63.69
32875;BME280;40468;42.128;24.750;2023-01-29T00:32:07;99895.22;;;3.52;63.69
32875;BME280;40468;42.128;24.750;2023-01-29T00:33:39;99905.47;;;3.54;63.75
32875;BME280;40468;42.128;24.750;2023-01-29T00:35:12;99902.06;;;3.53;63.79
32875;BME280;40468;42.128;24.750;2023-01-29T00:36:44;99902.91;;;3.54;63.66
32875;BME280;40468;42.128;24.750;2023-01-29T00:38:16;99899.47;;;3.53;63.87
32875;BME280;40468;42.128;24.750;2023-01-29T00:39:47;99902.91;;;3.55;63.65
32875;BME280;40468;42.128;24.750;2023-01-29T00:41:20;99897.81;;;3.51;63.72
32875;BME280;40468;42.128;24.750;2023-01-29T00:43:09;99900.41;;;3.49;63.77
32875;BME280;40468;42.128;24.750;2023-01-29T00:44:59;99905.56;;;3.48;63.88
32875;BME280;40468;42.128;24.750;2023-01-29T00:46:31;99899.53;;;3.50;63.88
32875;BME280;40468;42.128;24.750;2023-01-29T00:48:03;99896.06;;;3.53;63.79
32875;BME280;40468;42.128;24.750;2023-01-29T00:49:35;99899.50;;;3.52;63.77
32875;BME280;40468;42.128;24.750;2023-01-29T00:51:08;99903.00;;;3.49;63.78
32875;BME280;40468;42.128;24.750;2023-01-29T00:52:40;99902.09;;;3.49;63.82
32875;BME280;40468;42.128;24.750;2023-01-29T00:54:11;99902.09;;;3.49;63.77
32875;BME280;40468;42.128;24.750;2023-01-29T00:55:43;99890.19;;;3.43;63.82
32875;BME280;40468;42.128;24.750;2023-01-29T00:57:15;99903.03;;;3.43;63.60
32875;BME280;40468;42.128;24.750;2023-01-29T00:58:47;99899.63;;;3.44;63.74
32875;BME280;40468;42.128;24.750;2023-01-29T01:00:19;99903.88;;;3.45;63.63
32875;BME280;40468;42.128;24.750;2023-01-29T01:01:51;99896.09;;;3.50;63.61
32875;BME280;40468;42.128;24.750;2023-01-29T01:03:41;99911.50;;;3.53;63.49
32875;BME280;40468;42.128;24.750;2023-01-29T01:05:16;99899.44;;;3.55;63.52
32875;BME280;40468;42.128;24.750;2023-01-29T01:06:50;99905.47;;;3.54;63.54
32875;BME280;40468;42.128;24.750;2023-01-29T01:08:22;99907.22;;;3.53;63.48
32875;BME280;40468;42.128;24.750;2023-01-29T01:10:13;99898.69;;;3.48;63.58
32875;BME280;40468;42.128;24.750;2023-01-29T01:11:52;99902.19;;;3.44;63.61
32875;BME280;40468;42.128;24.750;2023-01-29T01:13:22;99905.63;;;3.45;63.58
32875;BME280;40468;42.128;24.750;2023-01-29T01:14:54;99901.34;;;3.44;63.58
32875;BME280;40468;42.128;24.750;2023-01-29T01:16:25;99907.34;;;3.44;63.70
32875;BME280;40468;42.128;24.750;2023-01-29T01:17:59;99904.78;;;3.44;63.74
32875;BME280;40468;42.128;24.750;2023-01-29T01:19:32;99899.63;;;3.42;63.71
32875;BME280;40468;42.128;24.750;2023-01-29T01:21:05;99909.97;;;3.41;63.84
32875;BME280;40468;42.128;24.750;2023-01-29T01:22:38;99903.97;;;3.40;63.93
32875;BME280;40468;42.128;24.750;2023-01-29T01:24:09;99912.53;;;3.39;63.98
32875;BME280;40468;42.128;24.750;2023-01-29T01:25:41;99909.16;;;3.37;64.16
32875;BME280;40468;42.128;24.750;2023-01-29T01:27:13;99904.88;;;3.36;64.13
32875;BME280;40468;42.128;24.750;2023-01-29T01:28:45;99905.75;;;3.35;64.19
32875;BME280;40468;42.128;24.750;2023-01-29T01:30:17;99916.94;;;3.34;64.12
32875;BME280;40468;42.128;24.750;2023-01-29T01:31:49;99909.22;;;3.33;64.12
32875;BME280;40468;42.128;24.750;2023-01-29T01:33:21;99914.34;;;3.33;64.27
32875;BME280;40468;42.128;24.750;2023-01-29T01:34:53;99905.00;;;3.29;64.38
32875;BME280;40468;42.128;24.750;2023-01-29T01:36:24;99914.41;;;3.28;64.40
32875;BME280;40468;42.128;24.750;2023-01-29T01:37:58;99916.09;;;3.32;64.31
32875;BME280;40468;42.128;24.750;2023-01-29T01:39:30;99904.13;;;3.28;64.42
32875;BME280;40468;42.128;24.750;2023-01-29T01:41:01;99905.84;;;3.29;64.53
32875;BME280;40468;42.128;24.750;2023-01-29T01:42:33;99916.97;;;3.30;64.49
32875;BME280;40468;42.128;24.750;2023-01-29T01:44:04;99903.22;;;3.32;64.50
32875;BME280;40468;42.128;24.750;2023-01-29T01:45:36;99909.22;;;3.33;64.51
32875;BME280;40468;42.128;24.750;2023-01-29T01:47:08;99905.78;;;3.31;64.60
32875;BME280;40468;42.128;24.750;2023-01-29T01:48:40;99903.22;;;3.31;64.61
32875;BME280;40468;42.128;24.750;2023-01-29T01:50:16;99901.53;;;3.30;64.68
32875;BME280;40468;42.128;24.750;2023-01-29T01:51:49;99898.97;;;3.28;64.63
32875;BME280;40468;42.128;24.750;2023-01-29T01:53:27;99905.78;;;3.32;64.49
32875;BME280;40468;42.128;24.750;2023-01-29T01:55:01;99903.25;;;3.29;64.59
32875;BME280;40468;42.128;24.750;2023-01-29T01:56:36;99904.94;;;3.32;64.64
32875;BME280;40468;42.128;24.750;2023-01-29T01:58:14;99897.22;;;3.30;64.39
32875;BME280;40468;42.128;24.750;2023-01-29T01:59:51;99907.47;;;3.35;64.45
32875;BME280;40468;42.128;24.750;2023-01-29T02:01:25;99906.63;;;3.34;64.53
32875;BME280;40468;42.128;24.750;2023-01-29T02:02:58;99899.00;;;3.27;64.54
32875;BME280;40468;42.128;24.750;2023-01-29T02:04:50;99910.91;;;3.35;64.45
32875;BME280;40468;42.128;24.750;2023-01-29T02:06:40;99902.34;;;3.33;64.48
32875;BME280;40468;42.128;24.750;2023-01-29T02:08:37;99911.78;;;3.33;64.62
32875;BME280;40468;42.128;24.750;2023-01-29T02:10:35;99914.31;;;3.36;64.57
32875;BME280;40468;42.128;24.750;2023-01-29T02:12:10;99910.91;;;3.35;64.56
32875;BME280;40468;42.128;24.750;2023-01-29T02:13:44;99908.31;;;3.35;64.62
32875;BME280;40468;42.128;24.750;2023-01-29T02:15:15;99912.59;;;3.36;64.60
32875;BME280;40468;42.128;24.750;2023-01-29T02:16:46;99913.44;;;3.38;64.66
32875;BME280;40468;42.128;24.750;2023-01-29T02:18:20;99911.75;;;3.36;64.66
32875;BME280;40468;42.128;24.750;2023-01-29T02:19:54;99923.75;;;3.35;64.52
32875;BME280;40468;42.128;24.750;2023-01-29T02:21:58;99914.31;;;3.36;64.77
32875;BME280;40468;42.128;24.750;2023-01-29T02:23:53;99911.78;;;3.33;64.87
32875;BME280;40468;42.128;24.750;2023-01-29T02:26:01;99920.25;;;3.39;64.86
32875;BME280;40468;42.128;24.750;2023-01-29T02:28:05;99921.19;;;3.35;65.01
32875;BME280;40468;42.128;24.750;2023-01-29T02:29:50;99932.28;;;3.40;64.94
32875;BME280;40468;42.128;24.750;2023-01-29T02:31:29;99930.53;;;3.42;64.86
32875;BME280;40468;42.128;24.750;2023-01-29T02:33:07;99929.66;;;3.44;64.87
32875;BME280;40468;42.128;24.750;2023-01-29T02:34:48;99929.59;;;3.48;65.07
32875;BME280;40468;42.128;24.750;2023-01-29T02:36:44;99941.63;;;3.48;65.04
32875;BME280;40468;42.128;24.750;2023-01-29T02:38:21;99928.75;;;3.48;65.09
32875;BME280;40468;42.128;24.750;2023-01-29T02:40:06;99932.16;;;3.48;65.19
32875;BME280;40468;42.128;24.750;2023-01-29T02:41:42;99938.16;;;3.49;65.22
32875;BME280;40468;42.128;24.750;2023-01-29T02:43:26;99933.84;;;3.51;65.33
32875;BME280;40468;42.128;24.750;2023-01-29T02:44:59;99930.44;;;3.50;65.42
32875;BME280;40468;42.128;24.750;2023-01-29T02:46:38;99935.53;;;3.52;65.48
32875;BME280;40468;42.128;24.750;2023-01-29T02:48:15;99943.25;;;3.52;65.44
32875;BME280;40468;42.128;24.750;2023-01-29T02:49:49;99940.69;;;3.52;65.59
32875;BME280;40468;42.128;24.750;2023-01-29T02:51:27;99939.84;;;3.51;65.64
32875;BME280;40468;42.128;24.750;2023-01-29T02:53:05;99939.88;;;3.50;65.66
32875;BME280;40468;42.128;24.750;2023-01-29T02:54:44;99939.00;;;3.51;65.91
32875;BME280;40468;42.128;24.750;2023-01-29T02:56:21;99945.03;;;3.48;65.87
32875;BME280;40468;42.128;24.750;2023-01-29T02:57:59;99927.16;;;3.39;66.09
32875;BME280;40468;42.128;24.750;2023-01-29T02:59:41;99944.22;;;3.45;66.16
32875;BME280;40468;42.128;24.750;2023-01-29T03:01:18;99938.25;;;3.42;66.26
32875;BME280;40468;42.128;24.750;2023-01-29T03:02:56;99944.22;;;3.43;66.35
32875;BME280;40468;42.128;24.750;2023-01-29T03:04:32;99945.13;;;3.44;66.34
32875;BME280;40468;42.128;24.750;2023-01-29T03:06:11;99948.53;;;3.42;66.35
32875;BME280;40468;42.128;24.750;2023-01-29T03:07:51;99947.69;;;3.44;66.42
32875;BME280;40468;42.128;24.750;2023-01-29T03:09:30;99947.66;;;3.45;66.29
32875;BME280;40468;42.128;24.750;2023-01-29T03:11:05;99951.09;;;3.44;66.46
32875;BME280;40468;42.128;24.750;2023-01-29T03:12:38;99943.38;;;3.42;66.47
32875;BME280;40468;42.128;24.750;2023-01-29T03:14:13;99952.00;;;3.41;66.62
32875;BME280;40468;42.128;24.750;2023-01-29T03:15:53;99952.03;;;3.38;66.78
32875;BME280;40468;42.128;24.750;2023-01-29T03:17:36;99952.00;;;3.40;66.79
32875;BME280;40468;42.128;24.750;2023-01-29T03:19:13;99957.16;;;3.40;66.77
32875;BME280;40468;42.128;24.750;2023-01-29T03:20:51;99953.72;;;3.39;66.78
32875;BME280;40468;42.128;24.750;2023-01-29T03:22:24;99954.56;;;3.41;66.77
32875;BME280;40468;42.128;24.750;2023-01-29T03:23:58;99957.09;;;3.43;66.87
32875;BME280;40468;42.128;24.750;2023-01-29T03:25:49;99958.00;;;3.42;66.85
32875;BME280;40468;42.128;24.750;2023-01-29T03:27:45;99959.75;;;3.38;66.97
32875;BME280;40468;42.128;24.750;2023-01-29T03:29:37;99972.69;;;3.35;66.87
32875;BME280;40468;42.128;24.750;2023-01-29T03:31:30;99962.34;;;3.37;66.97
32875;BME280;40468;42.128;24.750;2023-01-29T03:33:23;99963.19;;;3.39;66.86
32875;BME280;40468;42.128;24.750;2023-01-29T03:34:59;99966.66;;;3.36;66.92
32875;BME280;40468;42.128;24.750;2023-01-29T03:36:35;99969.25;;;3.35;66.91
32875;BME280;40468;42.128;24.750;2023-01-29T03:38:10;99961.56;;;3.30;67.00
32875;BME280;40468;42.128;24.750;2023-01-29T03:39:42;99974.31;;;3.39;66.93
32875;BME280;40468;42.128;24.750;2023-01-29T03:41:21;99976.09;;;3.37;66.77
32875;BME280;40468;42.128;24.750;2023-01-29T03:43:05;99974.38;;;3.36;66.89
32875;BME280;40468;42.128;24.750;2023-01-29T03:44:41;99974.41;;;3.33;66.80
32875;BME280;40468;42.128;24.750;2023-01-29T03:46:24;99971.03;;;3.31;66.92
32875;BME280;40468;42.128;24.750;2023-01-29T03:48:04;99975.28;;;3.31;67.00
32875;BME280;40468;42.128;24.750;2023-01-29T03:49:55;99971.03;;;3.28;67.12
32875;BME280;40468;42.128;24.750;2023-01-29T03:51:32;99976.22;;;3.27;67.04
32875;BME280;40468;42.128;24.750;2023-01-29T03:53:11;99977.09;;;3.26;67.10
32875;BME280;40468;42.128;24.750;2023-01-29T03:54:53;99987.41;;;3.24;67.02
32875;BME280;40468;42.128;24.750;2023-01-29T03:56:45;99991.66;;;3.25;67.07
32875;BME280;40468;42.128;24.750;2023-01-29T03:58:25;99990.84;;;3.23;67.14
32875;BME280;40468;42.128;24.750;2023-01-29T04:00:02;99989.16;;;3.21;67.06
32875;BME280;40468;42.128;24.750;2023-01-29T04:01:41;99994.31;;;3.19;67.24
32875;BME280;40468;42.128;24.750;2023-01-29T04:03:19;99987.47;;;3.19;67.26
32875;BME280;40468;42.128;24.750;2023-01-29T04:04:56;99998.59;;;3.20;67.24
32875;BME280;40468;42.128;24.750;2023-01-29T04:06:32;99993.47;;;3.20;67.33
32875;BME280;40468;42.128;24.750;2023-01-29T04:08:11;99996.88;;;3.19;67.24
32875;BME280;40468;42.128;24.750;2023-01-29T04:09:48;99995.16;;;3.21;67.26
32875;BME280;40468;42.128;24.750;2023-01-29T04:11:22;100006.34;;;3.20;67.35
32875;BME280;40468;42.128;24.750;2023-01-29T04:12:57;99991.78;;;3.16;67.39
32875;BME280;40468;42.128;24.750;2023-01-29T04:14:31;100006.28;;;3.22;67.42
32875;BME280;40468;42.128;24.750;2023-01-29T04:16:06;100009.75;;;3.19;67.57
32875;BME280;40468;42.128;24.750;2023-01-29T04:17:42;100012.31;;;3.19;67.67
32875;BME280;40468;42.128;24.750;2023-01-29T04:19:16;100014.09;;;3.17;67.80
32875;BME280;40468;42.128;24.750;2023-01-29T04:20:48;100014.09;;;3.17;67.86
32875;BME280;40468;42.128;24.750;2023-01-29T04:22:23;100016.63;;;3.18;67.96
32875;BME280;40468;42.128;24.750;2023-01-29T04:23:56;100023.50;;;3.19;67.94
32875;BME280;40468;42.128;24.750;2023-01-29T04:25:30;100014.91;;;3.19;67.98
32875;BME280;40468;42.128;24.750;2023-01-29T04:27:18;100019.22;;;3.17;68.22
32875;BME280;40468;42.128;24.750;2023-01-29T04:29:03;100018.34;;;3.19;68.18
32875;BME280;40468;42.128;24.750;2023-01-29T04:30:43;100022.66;;;3.17;68.29
32875;BME280;40468;42.128;24.750;2023-01-29T04:32:25;100017.50;;;3.16;68.47
32875;BME280;40468;42.128;24.750;2023-01-29T04:34:03;100027.81;;;3.16;68.40
32875;BME280;40468;42.128;24.750;2023-01-29T04:35:46;100023.50;;;3.16;68.57
32875;BME280;40468;42.128;24.750;2023-01-29T04:37:31;100019.22;;;3.17;68.49
32875;BME280;40468;42.128;24.750;2023-01-29T04:39:11;100026.06;;;3.16;68.46
32875;BME280;40468;42.128;24.750;2023-01-29T04:40:50;100022.69;;;3.13;68.70
32875;BME280;40468;42.128;24.750;2023-01-29T04:42:28;100024.41;;;3.14;68.70
32875;BME280;40468;42.128;24.750;2023-01-29T04:44:06;100023.53;;;3.13;68.75
32875;BME280;40468;42.128;24.750;2023-01-29T04:45:46;100026.97;;;3.15;68.86
32875;BME280;40468;42.128;24.750;2023-01-29T04:47:33;100024.38;;;3.15;68.73
32875;BME280;40468;42.128;24.750;2023-01-29T04:49:15;100025.19;;;3.19;68.74
32875;BME280;40468;42.128;24.750;2023-01-29T04:50:55;100032.91;;;3.19;68.78
32875;BME280;40468;42.128;24.750;2023-01-29T04:52:33;100031.22;;;3.18;68.88
32875;BME280;40468;42.128;24.750;2023-01-29T04:54:17;100028.69;;;3.15;69.13
32875;BME280;40468;42.128;24.750;2023-01-29T04:55:53;100040.66;;;3.16;69.25
32875;BME280;40468;42.128;24.750;2023-01-29T04:57:30;100042.41;;;3.15;69.61
32875;BME280;40468;42.128;24.750;2023-01-29T04:59:06;100039.81;;;3.17;69.53
32875;BME280;40468;42.128;24.750;2023-01-29T05:00:42;100045.81;;;3.17;69.72
32875;BME280;40468;42.128;24.750;2023-01-29T05:02:14;100035.53;;;3.16;69.66
32875;BME280;40468;42.128;24.750;2023-01-29T05:03:49;100036.38;;;3.16;70.08
32875;BME280;40468;42.128;24.750;2023-01-29T05:05:22;100043.25;;;3.16;70.12
32875;BME280;40468;42.128;24.750;2023-01-29T05:06:55;100045.84;;;3.14;70.53
32875;BME280;40468;42.128;24.750;2023-01-29T05:08:28;100040.66;;;3.16;70.48
32875;BME280;40468;42.128;24.750;2023-01-29T05:10:03;100044.97;;;3.15;70.58
32875;BME280;40468;42.128;24.750;2023-01-29T05:11:35;100045.88;;;3.11;70.90
32875;BME280;40468;42.128;24.750;2023-01-29T05:13:10;100051.00;;;3.13;70.98
32875;BME280;40468;42.128;24.750;2023-01-29T05:14:44;100048.47;;;3.11;70.99
32875;BME280;40468;42.128;24.750;2023-01-29T05:16:19;100047.56;;;3.12;71.30
32875;BME280;40468;42.128;24.750;2023-01-29T05:17:53;100051.84;;;3.15;71.46
32875;BME280;40468;42.128;24.750;2023-01-29T05:19:31;100055.22;;;3.20;71.30
32875;BME280;40468;42.128;24.750;2023-01-29T05:21:05;100045.75;;;3.22;71.42
32875;BME280;40468;42.128;24.750;2023-01-29T05:22:40;100053.47;;;3.22;71.51
32875;BME280;40468;42.128;24.750;2023-01-29T05:24:15;100049.19;;;3.23;71.68
32875;BME280;40468;42.128;24.750;2023-01-29T05:25:47;100049.19;;;3.21;71.82
32875;BME280;40468;42.128;24.750;2023-01-29T05:27:26;100054.34;;;3.21;71.86
32875;BME280;40468;42.128;24.750;2023-01-29T05:29:19;100058.69;;;3.17;71.88
32875;BME280;40468;42.128;24.750;2023-01-29T05:30:52;100050.19;;;3.11;71.92
32875;BME280;40468;42.128;24.750;2023-01-29T05:32:24;100057.81;;;3.18;71.99
32875;BME280;40468;42.128;24.750;2023-01-29T05:33:55;100058.69;;;3.17;72.05
32875;BME280;40468;42.128;24.750;2023-01-29T05:35:27;100056.97;;;3.16;72.07
32875;BME280;40468;42.128;24.750;2023-01-29T05:36:59;100056.97;;;3.18;71.94
32875;BME280;40468;42.128;24.750;2023-01-29T05:38:31;100055.22;;;3.20;72.03
32875;BME280;40468;42.128;24.750;2023-01-29T05:40:04;100062.06;;;3.21;71.93
32875;BME280;40468;42.128;24.750;2023-01-29T05:41:39;100058.63;;;3.22;71.89
32875;BME280;40468;42.128;24.750;2023-01-29T05:43:15;100062.06;;;3.23;71.67
32875;BME280;40468;42.128;24.750;2023-01-29T05:44:47;100065.50;;;3.23;71.74
32875;BME280;40468;42.128;24.750;2023-01-29T05:46:18;100067.19;;;3.24;71.77
32875;BME280;40468;42.128;24.750;2023-01-29T05:47:49;100068.91;;;3.22;71.87
32875;BME280;40468;42.128;24.750;2023-01-29T05:49:22;100066.34;;;3.22;71.72
32875;BME280;40468;42.128;24.750;2023-01-29T05:50:58;100064.59;;;3.24;71.76
32875;BME280;40468;42.128;24.750;2023-01-29T05:52:30;100066.38;;;3.21;71.85
32875;BME280;40468;42.128;24.750;2023-01-29T05:54:04;100074.06;;;3.22;71.85
32875;BME280;40468;42.128;24.750;2023-01-29T05:55:36;100075.78;;;3.22;71.88
32875;BME280;40468;42.128;24.750;2023-01-29T05:57:08;100081.81;;;3.21;71.72
32875;BME280;40468;42.128;24.750;2023-01-29T05:58:39;100079.19;;;3.22;71.76
32875;BME280;40468;42.128;24.750;2023-01-29T06:00:12;100087.78;;;3.24;71.81
32875;BME280;40468;42.128;24.750;2023-01-29T06:01:44;100080.91;;;3.25;71.81
32875;BME280;40468;42.128;24.750;2023-01-29T06:03:16;100089.47;;;3.27;71.85
32875;BME280;40468;42.128;24.750;2023-01-29T06:04:49;100089.44;;;3.30;71.80
32875;BME280;40468;42.128;24.750;2023-01-29T06:06:21;100085.97;;;3.32;71.47
32875;BME280;40468;42.128;24.750;2023-01-29T06:07:52;100090.31;;;3.29;71.12
32875;BME280;40468;42.128;24.750;2023-01-29T06:09:25;100090.31;;;3.27;71.26
32875;BME280;40468;42.128;24.750;2023-01-29T06:10:57;100087.78;;;3.26;71.30
32875;BME280;40468;42.128;24.750;2023-01-29T06:12:29;100092.91;;;3.26;71.36
32875;BME280;40468;42.128;24.750;2023-01-29T06:14:01;100098.88;;;3.28;71.08
32875;BME280;40468;42.128;24.750;2023-01-29T06:15:33;100095.56;;;3.18;71.42
32875;BME280;40468;42.128;24.750;2023-01-29T06:17:05;100099.78;;;3.24;71.24
32875;BME280;40468;42.128;24.750;2023-01-29T06:18:37;100103.25;;;3.23;71.31
32875;BME280;40468;42.128;24.750;2023-01-29T06:20:10;100104.97;;;3.19;71.39
32875;BME280;40468;42.128;24.750;2023-01-29T06:21:43;100104.16;;;3.17;71.50
32875;BME280;40468;42.128;24.750;2023-01-29T06:23:15;100103.31;;;3.13;71.80
32875;BME280;40468;42.128;24.750;2023-01-29T06:24:48;100106.75;;;3.14;71.95
32875;BME280;40468;42.128;24.750;2023-01-29T06:26:20;100100.81;;;3.07;72.10
32875;BME280;40468;42.128;24.750;2023-01-29T06:27:52;100108.50;;;3.12;72.26
32875;BME280;40468;42.128;24.750;2023-01-29T06:29:24;100112.81;;;3.08;72.36
32875;BME280;40468;42.128;24.750;2023-01-29T06:30:56;100111.13;;;3.04;72.64
32875;BME280;40468;42.128;24.750;2023-01-29T06:32:28;100104.28;;;3.03;72.66
32875;BME280;40468;42.128;24.750;2023-01-29T06:34:00;100112.78;;;3.10;72.72
32875;BME280;40468;42.128;24.750;2023-01-29T06:35:33;100114.44;;;3.15;72.80
32875;BME280;40468;42.128;24.750;2023-01-29T06:37:05;100119.59;;;3.17;72.68
32875;BME280;40468;42.128;24.750;2023-01-29T06:38:37;100118.69;;;3.23;72.47
32875;BME280;40468;42.128;24.750;2023-01-29T06:40:10;100119.47;;;3.28;72.39
32875;BME280;40468;42.128;24.750;2023-01-29T06:41:43;100125.47;;;3.30;72.47
32875;BME280;40468;42.128;24.750;2023-01-29T06:43:15;100128.03;;;3.31;72.16
32875;BME280;40468;42.128;24.750;2023-01-29T06:44:47;100127.16;;;3.31;72.05
32875;BME280;40468;42.128;24.750;2023-01-29T06:46:19;100131.47;;;3.32;71.87
32875;BME280;40468;42.128;24.750;2023-01-29T06:47:51;100138.31;;;3.33;71.61
32875;BME280;40468;42.128;24.750;2023-01-29T06:49:23;100133.19;;;3.31;71.56
32875;BME280;40468;42.128;24.750;2023-01-29T06:50:55;100137.50;;;3.29;71.30
32875;BME280;40468;42.128;24.750;2023-01-29T06:52:27;100139.19;;;3.30;71.10
32875;BME280;40468;42.128;24.750;2023-01-29T06:53:59;100139.19;;;3.30;70.94
32875;BME280;40468;42.128;24.750;2023-01-29T06:55:32;100140.91;;;3.31;70.67
32875;BME280;40468;42.128;24.750;2023-01-29T06:57:04;100140.09;;;3.26;70.60
32875;BME280;40468;42.128;24.750;2023-01-29T06:58:36;100141.81;;;3.26;70.51
32875;BME280;40468;42.128;24.750;2023-01-29T07:00:09;100138.38;;;3.27;70.46
32875;BME280;40468;42.128;24.750;2023-01-29T07:01:41;100144.28;;;3.33;70.37
32875;BME280;40468;42.128;24.750;2023-01-29T07:03:13;100145.16;;;3.35;70.30
32875;BME280;40468;42.128;24.750;2023-01-29T07:04:45;100145.97;;;3.39;70.33
32875;BME280;40468;42.128;24.750;2023-01-29T07:06:17;100145.06;;;3.41;70.19
32875;BME280;40468;42.128;24.750;2023-01-29T07:07:49;100151.09;;;3.40;70.28
32875;BME280;40468;42.128;24.750;2023-01-29T07:09:21;100149.34;;;3.42;70.16
32875;BME280;40468;42.128;24.750;2023-01-29T07:10:57;100148.44;;;3.48;70.11
32875;BME280;40468;42.128;24.750;2023-01-29T07:12:29;100157.00;;;3.50;70.09
32875;BME280;40468;42.128;24.750;2023-01-29T07:14:01;100157.00;;;3.49;70.10
32875;BME280;40468;42.128;24.750;2023-01-29T07:15:33;100156.19;;;3.47;70.21
32875;BME280;40468;42.128;24.750;2023-01-29T07:17:04;100158.75;;;3.47;70.37
32875;BME280;40468;42.128;24.750;2023-01-29T07:18:36;100153.63;;;3.47;70.45
32875;BME280;40468;42.128;24.750;2023-01-29T07:20:09;100158.69;;;3.51;70.59
32875;BME280;40468;42.128;24.750;2023-01-29T07:21:41;100168.97;;;3.54;70.37
32875;BME280;40468;42.128;24.750;2023-01-29T07:23:14;100163.81;;;3.54;70.53
32875;BME280;40468;42.128;24.750;2023-01-29T07:24:46;100169.88;;;3.49;70.66
32875;BME280;40468;42.128;24.750;2023-01-29T07:26:20;100166.50;;;3.45;70.88
32875;BME280;40468;42.128;24.750;2023-01-29T07:27:52;100167.34;;;3.46;71.00
32875;BME280;40468;42.128;24.750;2023-01-29T07:29:24;100161.34;;;3.47;71.23
32875;BME280;40468;42.128;24.750;2023-01-29T07:30:56;100165.63;;;3.49;71.51
32875;BME280;40468;42.128;24.750;2023-01-29T07:32:28;100166.47;;;3.50;71.52
32875;BME280;40468;42.128;24.750;2023-01-29T07:34:00;100169.00;;;3.53;71.51
32875;BME280;40468;42.128;24.750;2023-01-29T07:35:35;100160.41;;;3.54;71.74
32875;BME280;40468;42.128;24.750;2023-01-29T07:37:07;100164.69;;;3.53;71.84
32875;BME280;40468;42.128;24.750;2023-01-29T07:38:39;100166.44;;;3.51;nan
32875;BME280;40468;42.128;24.750;2023-01-29T07:40:11;100158.81;;;3.44;72.00
32875;BME280;40468;42.128;24.750;2023-01-29T07:41:45;100157.06;;;3.42;72.11
32875;BME280;40468;42.128;24.750;2023-01-29T07:43:16;100163.91;;;3.47;72.04
32875;BME280;40468;42.128;24.750;2023-01-29T07:44:48;100159.59;;;3.49;72.00
32875;BME280;40468;42.128;24.750;2023-01-29T07:46:20;100159.53;;;3.52;72.11
32875;BME280;40468;42.128;24.750;2023-01-29T07:47:52;100166.44;;;3.51;72.04
32875;BME280;40468;42.128;24.750;2023-01-29T07:49:24;100170.75;;;3.49;71.96
32875;BME280;40468;42.128;24.750;2023-01-29T07:50:57;100161.31;;;3.50;72.24
32875;BME280;40468;42.128;24.750;2023-01-29T07:52:29;100168.13;;;3.54;72.11
32875;BME280;40468;42.128;24.750;2023-01-29T07:54:01;100172.41;;;3.53;72.09
32875;BME280;40468;42.128;24.750;2023-01-29T07:55:33;100175.81;;;3.57;72.23
32875;BME280;40468;42.128;24.750;2023-01-29T07:57:06;100172.34;;;3.61;72.25
32875;BME280;40468;42.128;24.750;2023-01-29T07:58:38;100177.44;;;3.65;72.11
32875;BME280;40468;42.128;24.750;2023-01-29T08:00:11;100176.59;;;3.65;72.29
32875;BME280;40468;42.128;24.750;2023-01-29T08:01:43;100183.44;;;3.66;72.20
32875;BME280;40468;42.128;24.750;2023-01-29T08:03:17;100175.75;;;3.64;72.42
32875;BME280;40468;42.128;24.750;2023-01-29T08:04:50;100182.63;;;3.62;72.69
32875;BME280;40468;42.128;24.750;2023-01-29T08:06:22;100180.91;;;3.63;73.00
32875;BME280;40468;42.128;24.750;2023-01-29T08:07:54;100183.44;;;3.68;73.16
32875;BME280;40468;42.128;24.750;2023-01-29T08:09:26;100178.19;;;3.75;73.29
32875;BME280;40468;42.128;24.750;2023-01-29T08:11:00;100176.44;;;3.77;73.26
32875;BME280;40468;42.128;24.750;2023-01-29T08:12:33;100182.28;;;3.92;73.14
32875;BME280;40468;42.128;24.750;2023-01-29T08:14:05;100183.00;;;4.06;72.88
32875;BME280;40468;42.128;24.750;2023-01-29T08:15:41;100178.59;;;4.14;72.75
32875;BME280;40468;42.128;24.750;2023-01-29T08:17:13;100184.41;;;4.28;72.78
32875;BME280;40468;42.128;24.750;2023-01-29T08:18:45;100177.41;;;4.37;72.29
32875;BME280;40468;42.128;24.750;2023-01-29T08:20:18;100181.66;;;4.42;71.89
32875;BME280;40468;42.128;24.750;2023-01-29T08:21:50;100187.59;;;4.46;71.75
32875;BME280;40468;42.128;24.750;2023-01-29T08:23:22;100183.25;;;4.51;71.67